Time;durP1;ratioP1;P1;durP2;ratioP2;P2;SDS_P1;SDS_P2;PMS_P1;PMS_P2;Temp;Humidity;BMP_temperature;BMP_pressure;BME280_temperature;BME280_humidity;BME280_pressure;Samples;Min_cycle;Max_cycle;Signal;HPM_P1;HPM_P2
2022/06/02 00:02:17;;;;;;;3.80;3.60;;;;;;;;;;5062496;28;24427;-46
2022/06/02 00:04:58;;;;;;;3.90;3.70;;;;;;;;;;5080892;28;24418;-46
2022/06/02 00:07:37;;;;;;;3.83;3.55;;;;;;;;;;5070120;28;25030;-46
2022/06/02 00:10:08;;;;;;;3.80;3.60;;;;;;;;;;5075851;28;24425;-46
2022/06/02 00:12:48;;;;;;;3.60;3.40;;;;;;;;;;5069041;28;24443;-47
2022/06/02 00:15:26;;;;;;;4.10;3.80;;;;;;;;;;5067302;28;24418;-45
2022/06/02 00:18:01;;;;;;;4.28;3.97;;;;;;;;;;5078028;28;24551;-45
2022/06/02 00:20:29;;;;;;;4.80;4.40;;;;;;;;;;5075648;28;24458;-45
2022/06/02 00:23:10;;;;;;;4.63;4.30;;;;;;;;;;5081361;28;24434;-46
2022/06/02 00:25:35;;;;;;;4.32;4.03;;;;;;;;;;5055133;28;25004;-47
2022/06/02 00:28:19;;;;;;;3.90;3.60;;;;;;;;;;5074753;28;24987;-45
2022/06/02 00:30:48;;;;;;;4.07;3.88;;;;;;;;;;5057685;28;24418;-46
2022/06/02 00:33:18;;;;;;;3.50;3.30;;;;;;;;;;5061644;28;25019;-45
2022/06/02 00:35:43;;;;;;;3.90;3.70;;;;;;;;;;5082147;28;24521;-46
2022/06/02 00:38:14;;;;;;;4.10;3.80;;;;;;;;;;5070194;28;24569;-46
2022/06/02 00:40:39;;;;;;;4.45;4.15;;;;;;;;;;5071720;28;24422;-46
2022/06/02 00:43:04;;;;;;;4.40;4.00;;;;;;;;;;5076875;28;24546;-45
2022/06/02 00:45:30;;;;;;;4.40;4.10;;;;;;;;;;5069475;28;24489;-45
2022/06/02 00:47:55;;;;;;;4.85;4.45;;;;;;;;;;5074202;28;24742;-46
2022/06/02 00:50:37;;;;;;;4.40;4.10;;;;;;;;;;5072598;28;24510;-46
2022/06/02 00:53:06;;;;;;;3.92;3.63;;;;;;;;;;5081281;28;24449;-46
2022/06/02 00:58:53;;;;;;;4.60;4.30;;;;;;;;;;5075201;28;24459;-46
2022/06/02 01:01:24;;;;;;;3.92;3.72;;;;;;;;;;5058115;28;24531;-47
2022/06/02 01:03:49;;;;;;;4.50;4.10;;;;;;;;;;5079136;28;25015;-46
2022/06/02 01:06:17;;;;;;;4.70;4.40;;;;;;;;;;5074992;28;24425;-46
2022/06/02 01:09:00;;;;;;;5.30;4.90;;;;;;;;;;5066045;28;24466;-45
2022/06/02 01:11:31;;;;;;;4.80;4.50;;;;;;;;;;5080279;28;24980;-45
2022/06/02 01:14:03;;;;;;;4.50;4.20;;;;;;;;;;5070902;28;24980;-45
2022/06/02 01:16:38;;;;;;;4.40;4.00;;;;;;;;;;5077638;28;24426;-45
2022/06/02 01:19:14;;;;;;;4.10;3.80;;;;;;;;;;5074550;28;24427;-46
2022/06/02 01:21:47;;;;;;;4.25;3.95;;;;;;;;;;5062428;28;24436;-46
2022/06/02 01:24:33;;;;;;;4.20;3.90;;;;;;;;;;5081552;28;24504;-46
2022/06/02 01:27:06;;;;;;;5.70;4.00;;;;;;;;;;5071344;28;24434;-46
2022/06/02 01:29:50;;;;;;;3.80;3.60;;;;;;;;;;5071134;28;24423;-45
2022/06/02 01:32:20;;;;;;;4.50;4.10;;;;;;;;;;5064117;28;24434;-45
2022/06/02 01:35:04;;;;;;;4.45;4.15;;;;;;;;;;5075826;28;24425;-45
2022/06/02 01:37:33;;;;;;;4.35;4.05;;;;;;;;;;5076721;28;24460;-45
2022/06/02 01:40:21;;;;;;;4.22;4.03;;;;;;;;;;5076509;28;24990;-46
2022/06/02 01:42:58;;;;;;;4.32;4.03;;;;;;;;;;5069990;28;24490;-46
2022/06/02 01:45:26;;;;;;;4.60;4.30;;;;;;;;;;5075617;28;24854;-46
2022/06/02 01:47:57;;;;;;;4.65;4.35;;;;;;;;;;5067937;28;25717;-46
2022/06/02 01:50:41;;;;;;;4.50;4.20;;;;;;;;;;5062215;28;25190;-46
2022/06/02 01:53:14;;;;;;;4.60;4.30;;;;;;;;;;5056909;28;25001;-46
2022/06/02 01:55:52;;;;;;;4.45;4.15;;;;;;;;;;5054158;28;24828;-46
2022/06/02 01:58:23;;;;;;;4.82;4.53;;;;;;;;;;5058318;28;24990;-46
2022/06/02 02:00:55;;;;;;;4.50;4.20;;;;;;;;;;5068819;28;24971;-46
2022/06/02 02:03:29;;;;;;;4.60;4.30;;;;;;;;;;5065006;28;25026;-47
2022/06/02 02:06:01;;;;;;;4.40;4.10;;;;;;;;;;5064576;28;24530;-46
2022/06/02 02:08:44;;;;;;;4.85;4.55;;;;;;;;;;5065745;28;25241;-47
2022/06/02 02:11:20;;;;;;;4.82;4.53;;;;;;;;;;5057078;28;24440;-46
2022/06/02 02:13:55;;;;;;;4.38;4.10;;;;;;;;;;5056857;28;24423;-46
2022/06/02 02:16:38;;;;;;;4.80;4.40;;;;;;;;;;5059127;28;24506;-46
2022/06/02 02:19:21;;;;;;;4.68;4.38;;;;;;;;;;5059665;28;24785;-46
2022/06/02 02:22:05;;;;;;;4.50;4.20;;;;;;;;;;5059098;28;24430;-46
2022/06/02 02:24:33;;;;;;;4.47;4.20;;;;;;;;;;5058178;28;25091;-46
2022/06/02 02:27:08;;;;;;;4.82;4.53;;;;;;;;;;5060137;28;24438;-47
2022/06/02 02:29:40;;;;;;;5.40;5.00;;;;;;;;;;5059061;28;24454;-46
2022/06/02 02:32:23;;;;;;;5.65;5.03;;;;;;;;;;5056656;28;24492;-46
2022/06/02 02:35:07;;;;;;;4.80;4.50;;;;;;;;;;5056194;28;24431;-46
2022/06/02 02:37:32;;;;;;;4.90;4.55;;;;;;;;;;5065658;28;24514;-47
2022/06/02 02:40:01;;;;;;;4.90;4.60;;;;;;;;;;5070837;28;24521;-47
2022/06/02 02:42:35;;;;;;;5.78;5.38;;;;;;;;;;5064944;28;24477;-47
2022/06/02 02:45:07;;;;;;;5.40;5.00;;;;;;;;;;5074139;28;24603;-46
2022/06/02 02:47:48;;;;;;;5.47;5.10;;;;;;;;;;5069964;28;24454;-46
2022/06/02 02:50:18;;;;;;;5.20;4.90;;;;;;;;;;5071021;28;24449;-46
2022/06/02 02:52:51;;;;;;;5.40;5.00;;;;;;;;;;5079713;28;24519;-47
2022/06/02 02:55:20;;;;;;;5.90;5.50;;;;;;;;;;5070495;28;24592;-46
2022/06/02 02:58:12;;;;;;;5.90;5.50;;;;;;;;;;5063514;28;24822;-46
2022/06/02 03:00:41;;;;;;;5.60;5.20;;;;;;;;;;5039347;28;24433;-47
2022/06/02 03:03:06;;;;;;;6.10;5.70;;;;;;;;;;5066621;28;24453;-47
2022/06/02 03:05:45;;;;;;;5.50;5.10;;;;;;;;;;5082049;28;24429;-47
2022/06/02 03:08:35;;;;;;;5.55;5.20;;;;;;;;;;5079108;28;24647;-47
2022/06/02 03:11:06;;;;;;;6.27;5.80;;;;;;;;;;5044549;28;24515;-46
2022/06/02 03:13:50;;;;;;;6.30;5.90;;;;;;;;;;5084781;28;26462;-47
2022/06/02 03:16:15;;;;;;;6.30;5.90;;;;;;;;;;5087825;28;24972;-47
2022/06/02 03:18:50;;;;;;;6.40;5.90;;;;;;;;;;5088453;28;24471;-46
2022/06/02 03:21:36;;;;;;;6.20;5.60;;;;;;;;;;5086202;28;24999;-47
2022/06/02 03:24:15;;;;;;;5.53;5.13;;;;;;;;;;5086634;28;24513;-45
2022/06/02 03:26:53;;;;;;;5.60;5.20;;;;;;;;;;5088474;28;24616;-45
2022/06/02 03:29:21;;;;;;;5.10;4.70;;;;;;;;;;5073886;28;25029;-46
2022/06/02 03:31:56;;;;;;;5.45;5.05;;;;;;;;;;5069329;28;24812;-45
2022/06/02 03:34:25;;;;;;;4.90;4.60;;;;;;;;;;5080227;28;24509;-45
2022/06/02 03:37:08;;;;;;;6.00;5.60;;;;;;;;;;5066133;28;24406;-45
2022/06/02 03:39:41;;;;;;;5.40;5.00;;;;;;;;;;5069915;28;24444;-46
2022/06/02 03:42:06;;;;;;;4.90;4.50;;;;;;;;;;5071375;28;25428;-46
2022/06/02 03:44:32;;;;;;;4.70;4.40;;;;;;;;;;5072854;28;24395;-45
2022/06/02 03:47:06;;;;;;;4.20;3.90;;;;;;;;;;5069265;28;24489;-45
2022/06/02 03:49:32;;;;;;;4.30;4.00;;;;;;;;;;5069003;28;24398;-46
2022/06/02 03:51:57;;;;;;;4.22;3.92;;;;;;;;;;5075337;28;24402;-46
2022/06/02 03:54:25;;;;;;;3.97;3.72;;;;;;;;;;5078715;28;24402;-46
2022/06/02 03:57:02;;;;;;;4.55;4.25;;;;;;;;;;5062464;28;24481;-46
2022/06/02 03:59:44;;;;;;;4.00;3.70;;;;;;;;;;5061129;28;24455;-46
2022/06/02 04:02:11;;;;;;;4.40;4.10;;;;;;;;;;5064927;28;24431;-45
2022/06/02 04:04:45;;;;;;;4.40;4.10;;;;;;;;;;5063169;28;24429;-46
2022/06/02 04:07:22;;;;;;;3.83;3.53;;;;;;;;;;5066035;28;25191;-46
2022/06/02 04:10:05;;;;;;;3.40;3.20;;;;;;;;;;5073761;28;24419;-46
2022/06/02 04:15:39;;;;;;;3.58;3.28;;;;;;;;;;5054611;28;24503;-48
2022/06/02 04:18:20;;;;;;;3.60;3.40;;;;;;;;;;5056397;28;24429;-47
2022/06/02 04:20:52;;;;;;;3.70;3.40;;;;;;;;;;5066563;28;24523;-45
2022/06/02 04:23:17;;;;;;;3.80;3.50;;;;;;;;;;5066095;28;24780;-47
2022/06/02 04:25:48;;;;;;;3.80;3.50;;;;;;;;;;5074278;28;24974;-45
2022/06/02 04:28:34;;;;;;;3.87;3.57;;;;;;;;;;5051149;28;24430;-46
2022/06/02 04:31:18;;;;;;;3.28;3.08;;;;;;;;;;5060605;28;24418;-46
2022/06/02 04:33:51;;;;;;;3.60;3.30;;;;;;;;;;5062399;28;24434;-46
2022/06/02 04:36:16;;;;;;;4.00;3.70;;;;;;;;;;5060976;28;24867;-46
2022/06/02 04:38:44;;;;;;;3.42;3.13;;;;;;;;;;5057686;28;24551;-47
2022/06/02 04:41:15;;;;;;;3.47;3.17;;;;;;;;;;5057991;28;24427;-46
2022/06/02 04:43:48;;;;;;;3.20;3.00;;;;;;;;;;5054118;28;25026;-46
2022/06/02 04:46:27;;;;;;;3.90;3.53;;;;;;;;;;5063453;28;24465;-46
2022/06/02 04:49:08;;;;;;;3.20;3.00;;;;;;;;;;5056648;28;25129;-46
2022/06/02 04:51:42;;;;;;;3.28;3.08;;;;;;;;;;5065725;28;24441;-45
2022/06/02 04:54:16;;;;;;;2.97;2.78;;;;;;;;;;5055403;28;24468;-46
2022/06/02 04:56:56;;;;;;;3.40;3.10;;;;;;;;;;5053860;28;24454;-46
2022/06/02 04:59:26;;;;;;;3.40;3.10;;;;;;;;;;5060964;28;24418;-46
2022/06/02 05:02:05;;;;;;;3.55;3.33;;;;;;;;;;5043211;28;24997;-46
2022/06/02 05:04:39;;;;;;;3.30;3.10;;;;;;;;;;5069690;28;24828;-46
2022/06/02 05:07:04;;;;;;;3.15;2.95;;;;;;;;;;5051013;28;24432;-46
2022/06/02 05:09:40;;;;;;;3.40;3.20;;;;;;;;;;5065045;28;24433;-46
2022/06/02 05:12:11;;;;;;;2.80;2.60;;;;;;;;;;5059722;28;25035;-46
2022/06/02 05:14:55;;;;;;;4.30;4.00;;;;;;;;;;5070381;28;25020;-50
2022/06/02 05:17:30;;;;;;;4.20;3.90;;;;;;;;;;5054208;28;24488;-46
2022/06/02 05:20:14;;;;;;;3.60;3.40;;;;;;;;;;5068351;28;24995;-46
2022/06/02 05:22:57;;;;;;;3.30;3.00;;;;;;;;;;5054146;28;24442;-46
2022/06/02 05:25:33;;;;;;;4.22;3.92;;;;;;;;;;5059276;28;24426;-44
2022/06/02 05:28:23;;;;;;;4.03;3.73;;;;;;;;;;5062359;28;24441;-44
2022/06/02 05:30:58;;;;;;;3.63;3.42;;;;;;;;;;5069321;28;24418;-46
2022/06/02 05:33:29;;;;;;;3.58;3.28;;;;;;;;;;5084450;28;24834;-44
2022/06/02 05:35:54;;;;;;;3.40;3.20;;;;;;;;;;5087756;28;24390;-45
2022/06/02 05:38:38;;;;;;;4.30;4.00;;;;;;;;;;5086516;28;24487;-46
2022/06/02 05:41:21;;;;;;;4.00;3.70;;;;;;;;;;5062566;28;25000;-46
2022/06/02 05:44:06;;;;;;;3.75;3.55;;;;;;;;;;5052021;28;24442;-45
2022/06/02 05:46:50;;;;;;;3.13;2.92;;;;;;;;;;5066748;28;24955;-46
2022/06/02 05:49:20;;;;;;;4.40;4.10;;;;;;;;;;5069534;28;24438;-46
2022/06/02 05:51:57;;;;;;;3.92;3.72;;;;;;;;;;5074730;28;24557;-46
2022/06/02 05:54:31;;;;;;;4.05;3.75;;;;;;;;;;5065053;28;24994;-46
2022/06/02 05:57:05;;;;;;;4.30;3.90;;;;;;;;;;5068981;28;24423;-46
2022/06/02 05:59:41;;;;;;;5.00;4.70;;;;;;;;;;5060295;28;25294;-45
2022/06/02 06:02:24;;;;;;;4.68;4.38;;;;;;;;;;5069958;28;24948;-46
2022/06/02 06:04:58;;;;;;;4.90;4.60;;;;;;;;;;5066695;28;24971;-47
2022/06/02 06:07:42;;;;;;;5.00;4.60;;;;;;;;;;5063560;28;24457;-46
2022/06/02 06:10:11;;;;;;;5.20;4.90;;;;;;;;;;5071686;28;24422;-46
2022/06/02 06:12:52;;;;;;;4.70;4.40;;;;;;;;;;5068582;28;24414;-46
2022/06/02 06:15:40;;;;;;;5.20;4.80;;;;;;;;;;5077109;28;24424;-46
2022/06/02 06:18:09;;;;;;;5.03;4.72;;;;;;;;;;5060601;28;24514;-46
2022/06/02 06:20:34;;;;;;;4.03;3.72;;;;;;;;;;5061427;28;24483;-46
2022/06/02 06:23:08;;;;;;;4.03;3.72;;;;;;;;;;5061229;28;24434;-46
2022/06/02 06:25:41;;;;;;;4.97;4.57;;;;;;;;;;5050764;28;24469;-47
2022/06/02 06:28:14;;;;;;;4.30;4.00;;;;;;;;;;5059296;28;24440;-45
2022/06/02 06:30:48;;;;;;;6.40;5.80;;;;;;;;;;5058268;28;24424;-45
2022/06/02 06:33:33;;;;;;;5.50;5.10;;;;;;;;;;5065852;28;25083;-46
2022/06/02 06:36:01;;;;;;;5.10;4.70;;;;;;;;;;5064850;28;24524;-46
2022/06/02 06:38:26;;;;;;;4.70;4.30;;;;;;;;;;5083793;28;24487;-46
2022/06/02 06:40:51;;;;;;;4.05;3.78;;;;;;;;;;5072128;28;24534;-46
2022/06/02 06:43:33;;;;;;;5.40;5.00;;;;;;;;;;5084992;28;24478;-45
2022/06/02 06:46:16;;;;;;;4.55;4.18;;;;;;;;;;5047092;28;24402;-46
2022/06/02 06:48:54;;;;;;;4.70;4.40;;;;;;;;;;5075040;28;24848;-45
2022/06/02 06:51:36;;;;;;;5.00;4.70;;;;;;;;;;5086742;28;24433;-45
2022/06/02 06:54:25;;;;;;;3.90;3.60;;;;;;;;;;5085455;28;24695;-45
2022/06/02 06:56:57;;;;;;;4.30;3.40;;;;;;;;;;5046185;28;24518;-45
2022/06/02 06:59:39;;;;;;;3.63;3.42;;;;;;;;;;5062178;28;24968;-45
2022/06/02 07:02:23;;;;;;;4.20;3.90;;;;;;;;;;5078442;28;24419;-47
2022/06/02 07:05:07;;;;;;;4.35;4.05;;;;;;;;;;5086338;28;24454;-44
2022/06/02 07:07:50;;;;;;;5.35;4.95;;;;;;;;;;5084965;28;25376;-45
2022/06/02 07:10:22;;;;;;;4.30;4.00;;;;;;;;;;5071030;28;24859;-46
2022/06/02 07:13:06;;;;;;;3.80;3.60;;;;;;;;;;5065531;28;24426;-46
2022/06/02 07:15:37;;;;;;;4.00;3.70;;;;;;;;;;5065719;28;24473;-45
2022/06/02 07:18:16;;;;;;;3.40;3.20;;;;;;;;;;5065616;28;24530;-45
2022/06/02 07:20:42;;;;;;;3.78;3.55;;;;;;;;;;5069547;28;24426;-45
2022/06/02 07:23:11;;;;;;;3.97;3.67;;;;;;;;;;5085376;28;24487;-45
2022/06/02 07:25:51;;;;;;;4.50;4.10;;;;;;;;;;5062506;28;24531;-47
2022/06/02 07:28:30;;;;;;;3.30;3.10;;;;;;;;;;5031503;28;25222;-45
2022/06/02 07:31:08;;;;;;;3.70;3.40;;;;;;;;;;5054091;28;24411;-46
2022/06/02 07:33:57;;;;;;;3.55;3.25;;;;;;;;;;5084559;28;24437;-46
2022/06/02 07:36:42;;;;;;;3.75;3.55;;;;;;;;;;5086443;28;24435;-46
2022/06/02 07:39:07;;;;;;;3.90;3.60;;;;;;;;;;5085189;28;24430;-45
2022/06/02 07:41:49;;;;;;;3.42;3.22;;;;;;;;;;5076425;28;24875;-46
2022/06/02 07:44:26;;;;;;;3.70;3.50;;;;;;;;;;5064906;28;24466;-47
2022/06/02 07:46:54;;;;;;;3.35;2.50;;;;;;;;;;5065297;28;24489;-45
2022/06/02 07:49:35;;;;;;;3.10;2.90;;;;;;;;;;5066727;28;24812;-44
2022/06/02 07:52:19;;;;;;;4.10;3.80;;;;;;;;;;5068990;28;24999;-46
2022/06/02 07:54:54;;;;;;;3.30;2.70;;;;;;;;;;5081643;28;24525;-46
2022/06/02 07:57:23;;;;;;;3.58;3.38;;;;;;;;;;5088187;28;24406;-45
2022/06/02 08:00:09;;;;;;;3.10;2.90;;;;;;;;;;5067440;28;24816;-45
2022/06/02 08:02:46;;;;;;;3.80;3.20;;;;;;;;;;5064197;28;24508;-46
2022/06/02 08:05:31;;;;;;;3.08;2.88;;;;;;;;;;5050509;28;24445;-45
2022/06/02 08:07:59;;;;;;;3.60;3.30;;;;;;;;;;5068520;28;24835;-44
2022/06/02 08:10:43;;;;;;;2.92;2.70;;;;;;;;;;5069362;28;24488;-46
2022/06/02 08:13:32;;;;;;;2.70;2.50;;;;;;;;;;5067332;28;24964;-44
2022/06/02 08:16:04;;;;;;;3.30;3.00;;;;;;;;;;5082723;28;24472;-46
2022/06/02 08:18:36;;;;;;;3.10;2.80;;;;;;;;;;5087867;28;24426;-46
2022/06/02 08:21:21;;;;;;;3.42;3.22;;;;;;;;;;5089173;28;24393;-46
2022/06/02 08:24:07;;;;;;;2.60;2.40;;;;;;;;;;5071940;28;24517;-46
2022/06/02 08:26:32;;;;;;;2.80;2.60;;;;;;;;;;5087612;28;24414;-45
2022/06/02 08:28:58;;;;;;;2.40;2.30;;;;;;;;;;5088121;28;24460;-46
2022/06/02 08:31:41;;;;;;;2.83;2.63;;;;;;;;;;5088082;28;24433;-46
2022/06/02 08:34:24;;;;;;;3.00;2.80;;;;;;;;;;5080962;28;24423;-46
2022/06/02 08:36:57;;;;;;;3.10;2.80;;;;;;;;;;5060847;28;24812;-47
2022/06/02 08:39:40;;;;;;;2.80;2.60;;;;;;;;;;5063779;28;24456;-46
2022/06/02 08:42:16;;;;;;;3.20;2.70;;;;;;;;;;5048396;28;24843;-47
2022/06/02 08:45:00;;;;;;;2.78;2.58;;;;;;;;;;5066742;28;24430;-45
2022/06/02 08:47:44;;;;;;;3.13;2.90;;;;;;;;;;5085539;28;24422;-47
2022/06/02 08:50:27;;;;;;;2.70;2.50;;;;;;;;;;5087880;28;24414;-45
2022/06/02 08:53:09;;;;;;;3.00;2.80;;;;;;;;;;5087544;28;24510;-45
2022/06/02 08:55:57;;;;;;;2.97;2.78;;;;;;;;;;5079250;28;24419;-46
2022/06/02 08:58:44;;;;;;;2.70;2.50;;;;;;;;;;5067036;28;24426;-46
2022/06/02 09:01:28;;;;;;;2.20;1.90;;;;;;;;;;5067813;28;24418;-43
2022/06/02 09:04:11;;;;;;;2.70;2.50;;;;;;;;;;5065436;28;24458;-45
2022/06/02 09:07:03;;;;;;;2.88;2.67;;;;;;;;;;5059510;28;24473;-46
2022/06/02 09:09:28;;;;;;;3.30;3.10;;;;;;;;;;5066541;28;24431;-45
2022/06/02 09:12:03;;;;;;;2.90;2.70;;;;;;;;;;5067750;28;24454;-46
2022/06/02 09:14:34;;;;;;;4.03;3.28;;;;;;;;;;5066899;28;24427;-47
2022/06/02 09:17:20;;;;;;;2.95;2.75;;;;;;;;;;5066659;28;24961;-46
2022/06/02 09:19:51;;;;;;;3.33;2.50;;;;;;;;;;5080140;28;24985;-45
2022/06/02 09:22:28;;;;;;;2.13;2.03;;;;;;;;;;5066913;28;24451;-45
2022/06/02 09:25:11;;;;;;;2.67;2.47;;;;;;;;;;5067065;28;24417;-46
2022/06/02 09:27:54;;;;;;;3.95;2.90;;;;;;;;;;5064671;28;25247;-45
2022/06/02 09:30:24;;;;;;;2.40;2.20;;;;;;;;;;5062329;28;24414;-46
2022/06/02 09:32:52;;;;;;;2.00;1.90;;;;;;;;;;5066096;28;24391;-46
2022/06/02 09:35:20;;;;;;;2.58;2.38;;;;;;;;;;5056027;28;24499;-45
2022/06/02 09:37:45;;;;;;;2.90;2.70;;;;;;;;;;5064276;28;24434;-46
2022/06/02 09:40:29;;;;;;;2.25;2.15;;;;;;;;;;5067927;28;24425;-46
2022/06/02 09:43:05;;;;;;;2.90;2.70;;;;;;;;;;5067083;28;25253;-46
2022/06/02 09:45:49;;;;;;;2.60;2.50;;;;;;;;;;5067110;28;24391;-46
2022/06/02 09:48:37;;;;;;;3.05;2.85;;;;;;;;;;5065048;28;24444;-46
2022/06/02 09:51:14;;;;;;;3.10;2.90;;;;;;;;;;5032862;28;24430;-46
2022/06/02 09:54:07;;;;;;;3.70;3.50;;;;;;;;;;5066617;28;24781;-45
2022/06/02 09:56:50;;;;;;;3.40;3.10;;;;;;;;;;5064150;28;24427;-45
2022/06/02 09:59:17;;;;;;;2.90;2.70;;;;;;;;;;5065049;28;24444;-46
2022/06/02 10:01:48;;;;;;;3.30;3.00;;;;;;;;;;5078365;28;24492;-47
2022/06/02 10:04:30;;;;;;;3.05;2.85;;;;;;;;;;5082858;28;24893;-46
2022/06/02 10:07:04;;;;;;;4.03;3.80;;;;;;;;;;5086501;28;24422;-45
2022/06/02 10:09:37;;;;;;;3.20;3.00;;;;;;;;;;5076924;28;24974;-45
2022/06/02 10:15:12;;;;;;;3.50;3.30;;;;;;;;;;5058357;28;25266;-44
2022/06/02 10:17:43;;;;;;;4.28;3.97;;;;;;;;;;5085819;28;24458;-44
2022/06/02 10:20:27;;;;;;;3.78;3.47;;;;;;;;;;5077670;28;24418;-44
2022/06/02 10:23:11;;;;;;;3.20;3.00;;;;;;;;;;5059935;28;24422;-44
2022/06/02 10:25:39;;;;;;;4.40;4.20;;;;;;;;;;5063778;28;24434;-44
2022/06/02 10:28:10;;;;;;;3.83;3.63;;;;;;;;;;5080960;28;24441;-44
2022/06/02 10:30:36;;;;;;;3.55;3.25;;;;;;;;;;5080134;28;24883;-44
2022/06/02 10:33:23;;;;;;;3.60;3.40;;;;;;;;;;5080750;28;25125;-44
2022/06/02 10:36:00;;;;;;;2.90;2.70;;;;;;;;;;5046325;28;24415;-45
2022/06/02 10:38:26;;;;;;;2.90;2.70;;;;;;;;;;5061436;28;24621;-45
2022/06/02 10:40:51;;;;;;;3.30;3.10;;;;;;;;;;5064361;28;24861;-45
2022/06/02 10:43:37;;;;;;;3.55;3.35;;;;;;;;;;5064674;28;24480;-47
2022/06/02 10:46:29;;;;;;;3.90;3.70;;;;;;;;;;5066423;28;24513;-46
2022/06/02 10:48:54;;;;;;;4.25;3.95;;;;;;;;;;5065274;28;24879;-46
2022/06/02 10:51:38;;;;;;;3.58;3.38;;;;;;;;;;5082901;28;24845;-46
2022/06/02 10:54:09;;;;;;;3.75;3.55;;;;;;;;;;5050303;28;24426;-46
2022/06/02 10:56:40;;;;;;;3.05;2.92;;;;;;;;;;5066002;28;24493;-46
2022/06/02 10:59:24;;;;;;;3.10;2.90;;;;;;;;;;5065116;28;24788;-46
2022/06/02 11:02:01;;;;;;;3.10;3.00;;;;;;;;;;5063123;28;24503;-47
2022/06/02 11:04:29;;;;;;;2.58;2.40;;;;;;;;;;5065770;28;24423;-46
2022/06/02 11:06:57;;;;;;;2.35;2.25;;;;;;;;;;5064873;28;24533;-46
2022/06/02 11:09:34;;;;;;;2.60;2.40;;;;;;;;;;5065684;28;24952;-44
2022/06/02 11:12:13;;;;;;;2.55;2.45;;;;;;;;;;5071427;28;25032;-44
2022/06/02 11:15:08;;;;;;;3.70;3.50;;;;;;;;;;5056303;28;24461;-44
2022/06/02 11:17:44;;;;;;;3.40;3.20;;;;;;;;;;5065345;28;24422;-46
2022/06/02 11:20:25;;;;;;;3.45;3.20;;;;;;;;;;5065946;28;24454;-46
2022/06/02 11:23:05;;;;;;;3.08;2.97;;;;;;;;;;5077553;28;24470;-46
2022/06/02 11:25:49;;;;;;;3.13;2.83;;;;;;;;;;5088727;28;24556;-46
2022/06/02 11:28:32;;;;;;;2.53;2.42;;;;;;;;;;5078770;28;24442;-44
2022/06/02 11:31:08;;;;;;;3.35;3.15;;;;;;;;;;5044597;28;24395;-44
2022/06/02 11:33:56;;;;;;;3.80;3.60;;;;;;;;;;5063712;28;24419;-44
2022/06/02 11:36:40;;;;;;;3.00;2.80;;;;;;;;;;5056396;28;24422;-43
2022/06/02 11:39:11;;;;;;;3.42;3.13;;;;;;;;;;5068918;28;24435;-44
2022/06/02 11:41:50;;;;;;;2.70;2.60;;;;;;;;;;5068933;28;25114;-44
2022/06/02 11:44:29;;;;;;;2.90;2.70;;;;;;;;;;5067654;28;24458;-44
2022/06/02 11:47:00;;;;;;;2.75;2.50;;;;;;;;;;5069645;28;24452;-46
2022/06/02 11:49:41;;;;;;;3.78;3.47;;;;;;;;;;5069004;28;24532;-45
2022/06/02 11:52:25;;;;;;;3.53;3.33;;;;;;;;;;5069045;28;24456;-45
2022/06/02 11:55:09;;;;;;;3.20;3.00;;;;;;;;;;5065251;28;24781;-45
2022/06/02 11:57:49;;;;;;;4.15;3.75;;;;;;;;;;5085118;28;24426;-46
2022/06/02 12:00:44;;;;;;;2.60;2.40;;;;;;;;;;5056994;28;24526;-46
2022/06/02 12:03:20;;;;;;;3.55;3.35;;;;;;;;;;5077112;28;24473;-45
2022/06/02 12:05:57;;;;;;;3.55;3.30;;;;;;;;;;5088102;28;24451;-45
2022/06/02 12:08:32;;;;;;;4.00;3.80;;;;;;;;;;5088327;28;24521;-44
2022/06/02 12:11:16;;;;;;;3.70;3.50;;;;;;;;;;5082399;28;24426;-44
2022/06/02 12:13:52;;;;;;;4.00;3.80;;;;;;;;;;5058493;28;24426;-44
2022/06/02 12:16:26;;;;;;;3.90;3.70;;;;;;;;;;5068473;28;24968;-44
2022/06/02 12:18:54;;;;;;;4.13;3.83;;;;;;;;;;5067960;28;24450;-45
2022/06/02 12:21:29;;;;;;;3.60;3.40;;;;;;;;;;5068146;28;24418;-45
2022/06/02 12:23:54;;;;;;;4.00;3.70;;;;;;;;;;5055166;28;24458;-44
2022/06/02 12:26:25;;;;;;;3.22;3.03;;;;;;;;;;5068596;28;24480;-45
2022/06/02 12:28:56;;;;;;;3.80;3.60;;;;;;;;;;5067728;28;24884;-45
2022/06/02 12:31:35;;;;;;;4.00;3.80;;;;;;;;;;5068308;28;24423;-46
2022/06/02 12:34:00;;;;;;;3.55;3.35;;;;;;;;;;5080238;28;24527;-46
2022/06/02 12:36:42;;;;;;;3.70;3.50;;;;;;;;;;5088855;28;24416;-45
2022/06/02 12:39:16;;;;;;;3.92;3.72;;;;;;;;;;5087879;28;24608;-46
2022/06/02 12:42:00;;;;;;;5.25;4.85;;;;;;;;;;5087634;28;24513;-46
2022/06/02 12:44:38;;;;;;;4.30;4.10;;;;;;;;;;5076252;28;24450;-46
2022/06/02 12:47:03;;;;;;;5.32;5.03;;;;;;;;;;5067514;28;24403;-45
2022/06/02 12:49:28;;;;;;;4.90;4.60;;;;;;;;;;5065970;28;24453;-45
2022/06/02 12:52:12;;;;;;;4.05;3.83;;;;;;;;;;5068585;28;24391;-45
2022/06/02 12:54:56;;;;;;;3.90;3.70;;;;;;;;;;5073699;28;24472;-46
2022/06/02 12:57:39;;;;;;;4.00;3.80;;;;;;;;;;5085310;28;24423;-45
2022/06/02 13:00:23;;;;;;;4.00;3.80;;;;;;;;;;5077564;28;24957;-46
2022/06/02 13:03:00;;;;;;;4.20;3.80;;;;;;;;;;5053618;28;24480;-45
2022/06/02 13:05:44;;;;;;;3.90;3.60;;;;;;;;;;5076602;28;24975;-45
2022/06/02 13:08:28;;;;;;;4.20;3.80;;;;;;;;;;5052526;28;24434;-45
2022/06/02 13:11:00;;;;;;;3.72;3.42;;;;;;;;;;5067476;28;24525;-46
2022/06/02 13:13:27;;;;;;;3.80;3.60;;;;;;;;;;5067536;28;24823;-46
2022/06/02 13:16:01;;;;;;;4.45;4.20;;;;;;;;;;5071464;28;24587;-46
2022/06/02 13:18:39;;;;;;;4.70;4.40;;;;;;;;;;5086087;28;24491;-45
2022/06/02 13:21:04;;;;;;;4.00;3.80;;;;;;;;;;5087822;28;24402;-45
2022/06/02 13:23:55;;;;;;;4.00;3.80;;;;;;;;;;5077514;28;24436;-45
2022/06/02 13:26:21;;;;;;;4.55;4.35;;;;;;;;;;5070937;28;24812;-46
2022/06/02 13:28:46;;;;;;;5.17;4.93;;;;;;;;;;5060225;28;25035;-44
2022/06/02 13:31:20;;;;;;;5.17;4.87;;;;;;;;;;5055646;28;24438;-45
2022/06/02 13:33:55;;;;;;;3.83;3.63;;;;;;;;;;5057513;28;24465;-45
2022/06/02 13:36:26;;;;;;;4.38;4.18;;;;;;;;;;5051219;28;25039;-44
2022/06/02 13:39:00;;;;;;;3.83;3.63;;;;;;;;;;5058313;28;24427;-44
2022/06/02 13:41:35;;;;;;;3.45;3.20;;;;;;;;;;5055246;28;24431;-45
2022/06/02 13:44:19;;;;;;;2.95;2.75;;;;;;;;;;5079625;28;24573;-45
2022/06/02 13:47:03;;;;;;;4.70;4.50;;;;;;;;;;5078938;28;24429;-45
2022/06/02 13:49:34;;;;;;;4.10;3.90;;;;;;;;;;5075165;28;24441;-45
2022/06/02 13:52:15;;;;;;;4.70;4.40;;;;;;;;;;5098826;28;24452;-45
2022/06/02 13:57:53;;;;;;;4.25;4.05;;;;;;;;;;5077447;28;24421;-44
2022/06/02 14:00:22;;;;;;;5.05;4.75;;;;;;;;;;5095131;28;25008;-44
2022/06/02 14:02:47;;;;;;;5.40;5.10;;;;;;;;;;5080619;28;24423;-44
2022/06/02 14:05:34;;;;;;;5.70;5.40;;;;;;;;;;5093531;28;24491;-43
2022/06/02 14:08:11;;;;;;;5.30;5.00;;;;;;;;;;5074633;28;24487;-45
2022/06/02 14:10:55;;;;;;;4.88;4.57;;;;;;;;;;5067176;28;24409;-47
2022/06/02 14:13:23;;;;;;;4.90;4.60;;;;;;;;;;5066989;28;24433;-44
2022/06/02 14:16:06;;;;;;;5.00;4.70;;;;;;;;;;5075828;28;24936;-44
2022/06/02 14:18:39;;;;;;;3.92;3.72;;;;;;;;;;5078135;28;24532;-45
2022/06/02 14:21:16;;;;;;;4.10;3.80;;;;;;;;;;5086515;28;24698;-44
2022/06/02 14:24:08;;;;;;;4.20;4.00;;;;;;;;;;5081605;28;25465;-44
2022/06/02 14:26:36;;;;;;;4.57;4.30;;;;;;;;;;5073031;28;24477;-45
2022/06/02 14:29:01;;;;;;;4.65;4.35;;;;;;;;;;5086574;28;24899;-46
2022/06/02 14:31:36;;;;;;;4.57;4.38;;;;;;;;;;5087022;28;25004;-45
2022/06/02 14:34:05;;;;;;;3.90;3.70;;;;;;;;;;5082719;28;24946;-44
2022/06/02 14:37:09;;;;;;;4.27;4.07;;;;;;;;;;5087030;28;24451;-45
2022/06/02 14:39:48;;;;;;;3.88;3.67;;;;;;;;;;5013421;28;24527;-45
2022/06/02 14:43:03;;;;;;;4.60;4.40;;;;;;;;;;5010813;28;24424;-45
2022/06/02 14:45:35;;;;;;;4.00;3.70;;;;;;;;;;5051136;28;24492;-45
2022/06/02 14:48:12;;;;;;;3.72;3.53;;;;;;;;;;5069464;28;24718;-45
2022/06/02 14:50:45;;;;;;;3.80;3.60;;;;;;;;;;5066363;28;24441;-45
2022/06/02 14:53:14;;;;;;;3.20;3.00;;;;;;;;;;5066240;28;24482;-45
2022/06/02 14:55:41;;;;;;;3.70;3.50;;;;;;;;;;5066555;28;24397;-45
2022/06/02 14:58:15;;;;;;;3.50;3.20;;;;;;;;;;5067691;28;24474;-45
2022/06/02 15:00:49;;;;;;;3.60;3.40;;;;;;;;;;5069537;28;24505;-45
2022/06/02 15:03:33;;;;;;;3.50;3.30;;;;;;;;;;5070385;28;24525;-45
2022/06/02 15:06:00;;;;;;;3.70;3.50;;;;;;;;;;5070379;28;25011;-46
2022/06/02 15:08:44;;;;;;;3.30;3.20;;;;;;;;;;5070459;28;24454;-45
2022/06/02 15:11:30;;;;;;;3.20;3.00;;;;;;;;;;5084580;28;24467;-44
2022/06/02 15:14:10;;;;;;;3.08;2.88;;;;;;;;;;5035011;28;24993;-45
2022/06/02 15:16:54;;;;;;;3.15;2.85;;;;;;;;;;5090672;28;24420;-44
2022/06/02 15:19:29;;;;;;;3.38;3.17;;;;;;;;;;5087736;28;24395;-44
2022/06/02 15:22:00;;;;;;;3.60;3.40;;;;;;;;;;5090353;28;24479;-45
2022/06/02 15:24:44;;;;;;;3.20;3.00;;;;;;;;;;5090434;28;24409;-44
2022/06/02 15:27:29;;;;;;;2.70;2.60;;;;;;;;;;5077513;28;24505;-45
2022/06/02 15:29:54;;;;;;;3.70;3.50;;;;;;;;;;5055227;28;24431;-46
2022/06/02 15:32:22;;;;;;;2.50;2.40;;;;;;;;;;5090399;28;24402;-45
2022/06/02 15:34:58;;;;;;;2.70;2.60;;;;;;;;;;5090142;28;24400;-44
2022/06/02 15:37:46;;;;;;;3.40;3.20;;;;;;;;;;5090254;28;24927;-44
2022/06/02 15:40:30;;;;;;;3.25;3.05;;;;;;;;;;5086330;28;24580;-45
2022/06/02 15:42:55;;;;;;;3.10;2.92;;;;;;;;;;5052665;28;24449;-46
2022/06/02 15:45:39;;;;;;;2.60;2.50;;;;;;;;;;5068343;28;24429;-45
2022/06/02 15:48:19;;;;;;;2.77;2.67;;;;;;;;;;5052727;28;24439;-45
2022/06/02 15:50:59;;;;;;;3.00;2.90;;;;;;;;;;5061091;28;24422;-45